Time;durP1;ratioP1;P1;durP2;ratioP2;P2;SDS_P1;SDS_P2;PMS_P1;PMS_P2;Temp;Humidity;BMP_temperature;BMP_pressure;BME280_temperature;BME280_humidity;BME280_pressure;Samples;Min_cycle;Max_cycle;Signal;HPM_P1;HPM_P2
2023/12/08 00:02:52;;;;;;;29.25;10.98;;;2.80;89.10;;;;;;9173954;19;20014;-71
2023/12/08 00:05:58;;;;;;;18.98;9.48;;;2.80;89.10;;;;;;9174261;19;20589;-70
2023/12/08 00:09:09;;;;;;;20.85;11.23;;;2.90;89.20;;;;;;9173764;19;20022;-70
2023/12/08 00:12:15;;;;;;;24.02;9.25;;;2.90;89.10;;;;;;9174713;19;20037;-70
2023/12/08 00:15:22;;;;;;;20.05;9.68;;;2.90;89.10;;;;;;9176303;19;20023;-70
2023/12/08 00:18:28;;;;;;;25.70;10.18;;;2.90;89.00;;;;;;9173936;19;20018;-70
2023/12/08 00:21:35;;;;;;;21.50;9.63;;;2.90;89.10;;;;;;9169395;19;20014;-70
2023/12/08 00:24:44;;;;;;;18.85;9.30;;;2.90;89.00;;;;;;9169681;19;20015;-70
2023/12/08 00:27:51;;;;;;;18.20;9.65;;;2.90;89.00;;;;;;9171897;19;20524;-70
2023/12/08 00:30:57;;;;;;;21.13;10.00;;;2.90;89.00;;;;;;9171855;19;20014;-70
2023/12/08 00:34:04;;;;;;;21.83;9.85;;;2.90;89.00;;;;;;9173692;19;20030;-71
2023/12/08 00:37:10;;;;;;;23.77;9.63;;;2.90;89.00;;;;;;9174492;19;20023;-70
2023/12/08 00:40:20;;;;;;;19.23;10.25;;;2.90;89.00;;;;;;9175339;19;20468;-70
2023/12/08 00:43:26;;;;;;;23.33;9.82;;;2.90;89.00;;;;;;9172771;19;20586;-70
2023/12/08 00:46:33;;;;;;;18.48;10.13;;;2.90;88.90;;;;;;9173373;19;20029;-70
2023/12/08 00:49:39;;;;;;;20.23;10.32;;;2.90;88.90;;;;;;9174464;19;20053;-70
2023/12/08 00:52:47;;;;;;;21.65;10.13;;;2.90;88.90;;;;;;9173188;19;20018;-70
2023/12/08 00:55:56;;;;;;;19.38;9.75;;;2.90;88.90;;;;;;9174814;19;20395;-71
2023/12/08 00:59:03;;;;;;;18.80;9.65;;;2.90;88.90;;;;;;9167737;19;20021;-72
2023/12/08 01:02:09;;;;;;;21.38;10.07;;;2.90;88.90;;;;;;9171730;19;20022;-71
2023/12/08 01:05:18;;;;;;;19.65;10.32;;;2.90;88.90;;;;;;9169828;19;20014;-71
2023/12/08 01:08:23;;;;;;;23.27;9.50;;;3.00;88.90;;;;;;9173358;19;20006;-72
2023/12/08 01:11:34;;;;;;;16.60;9.60;;;3.00;88.90;;;;;;9173721;19;20067;-71
2023/12/08 01:14:40;;;;;;;20.92;9.98;;;3.00;88.90;;;;;;9173514;19;20025;-71
2023/12/08 01:17:47;;;;;;;22.55;10.70;;;3.00;88.80;;;;;;9173541;19;20019;-71
2023/12/08 01:20:54;;;;;;;24.83;10.38;;;3.00;88.80;;;;;;9172932;19;20034;-71
2023/12/08 01:24:01;;;;;;;18.10;9.90;;;3.00;88.80;;;;;;9173332;19;20490;-72
2023/12/08 01:27:09;;;;;;;20.23;10.45;;;3.00;88.80;;;;;;9173378;19;20032;-72
2023/12/08 01:30:17;;;;;;;20.38;9.85;;;3.00;88.70;;;;;;9170423;19;20024;-73
2023/12/08 01:33:22;;;;;;;20.20;10.18;;;3.00;88.80;;;;;;9173909;19;20048;-72
2023/12/08 01:36:30;;;;;;;20.65;10.07;;;3.00;88.80;;;;;;9172484;19;20018;-71
2023/12/08 01:39:48;;;;;;;25.42;10.68;;;3.00;88.70;;;;;;9174279;19;20014;-71
2023/12/08 01:42:59;;;;;;;16.00;8.45;;;3.00;88.70;;;;;;9173686;19;20026;-72
2023/12/08 01:46:04;;;;;;;19.33;9.07;;;3.00;88.70;;;;;;9171429;19;20455;-71
2023/12/08 01:49:12;;;;;;;23.92;10.27;;;3.00;88.70;;;;;;9172250;19;20014;-72
2023/12/08 01:52:24;;;;;;;18.45;9.07;;;3.00;88.70;;;;;;9171836;19;20011;-72
2023/12/08 01:55:32;;;;;;;;;;;3.00;88.70;;;;;;9171479;19;20017;-70
2023/12/08 01:58:41;;;;;;;20.40;9.57;;;3.00;88.70;;;;;;9168171;19;19918;-71
2023/12/08 02:01:48;;;;;;;17.33;9.18;;;3.00;88.70;;;;;;9173888;19;20019;-71
2023/12/08 02:04:59;;;;;;;20.13;10.02;;;3.00;88.60;;;;;;9172636;19;20380;-70
2023/12/08 02:08:07;;;;;;;20.00;10.57;;;3.00;88.70;;;;;;9173265;19;20014;-72
2023/12/08 02:11:13;;;;;;;19.98;9.57;;;3.00;88.70;;;;;;9172365;19;20091;-69
2023/12/08 02:14:26;;;;;;;18.33;9.95;;;3.00;88.70;;;;;;9173358;19;20025;-70
2023/12/08 02:17:38;;;;;;;22.50;10.60;;;3.10;88.70;;;;;;9171385;19;20014;-68
2023/12/08 02:20:46;;;;;;;19.98;10.27;;;3.00;88.70;;;;;;9172250;19;20362;-70
2023/12/08 02:23:54;;;;;;;24.90;10.25;;;3.10;88.70;;;;;;9172184;19;20031;-70
2023/12/08 02:27:02;;;;;;;16.58;9.60;;;3.00;88.50;;;;;;9171045;19;20026;-70
2023/12/08 02:30:09;;;;;;;21.30;9.45;;;3.10;88.60;;;;;;9172579;19;20015;-72
2023/12/08 02:33:23;;;;;;;21.25;9.98;;;3.10;88.60;;;;;;9172856;19;20095;-70
2023/12/08 02:36:30;;;;;;;18.52;10.55;;;3.10;88.60;;;;;;9173545;19;20007;-70
2023/12/08 02:39:41;;;;;;;19.23;9.90;;;3.10;88.70;;;;;;9173818;19;20025;-71
2023/12/08 02:42:47;;;;;;;21.15;9.82;;;3.10;88.60;;;;;;9174351;19;20007;-70
2023/12/08 02:45:54;;;;;;;19.92;9.93;;;3.10;88.60;;;;;;9170808;19;20010;-70
2023/12/08 02:49:00;;;;;;;17.20;9.43;;;3.10;88.50;;;;;;9169428;19;20026;-71
2023/12/08 02:52:08;;;;;;;18.88;9.88;;;3.10;88.50;;;;;;9168862;19;20021;-70
2023/12/08 02:55:16;;;;;;;17.67;10.27;;;3.10;88.50;;;;;;9171743;19;20686;-70
2023/12/08 02:58:24;;;;;;;20.30;10.50;;;3.20;88.50;;;;;;9166984;19;20019;-71
2023/12/08 03:01:30;;;;;;;16.67;9.90;;;3.20;88.50;;;;;;9179928;19;20036;-69
2023/12/08 03:04:37;;;;;;;18.70;9.95;;;3.20;88.50;;;;;;9177819;19;20532;-72
2023/12/08 03:07:43;;;;;;;20.13;9.82;;;3.20;88.60;;;;;;9176005;19;20034;-70
2023/12/08 03:10:53;;;;;;;20.00;10.85;;;3.20;88.50;;;;;;9179471;19;20010;-70
2023/12/08 03:13:58;;;;;;;20.70;10.60;;;3.20;88.50;;;;;;9177374;19;20011;-72
2023/12/08 03:17:06;;;;;;;20.38;11.02;;;3.20;88.50;;;;;;9179828;19;20003;-73
2023/12/08 03:20:13;;;;;;;18.58;9.75;;;3.20;88.50;;;;;;9179625;19;20437;-71
2023/12/08 03:23:20;;;;;;;21.25;10.57;;;3.20;88.50;;;;;;9180168;19;20022;-72
2023/12/08 03:26:28;;;;;;;21.23;10.68;;;3.20;89.00;;;;;;9179654;19;20078;-72
2023/12/08 03:29:35;;;;;;;21.08;10.43;;;3.20;88.40;;;;;;9179576;19;20026;-72
2023/12/08 03:32:41;;;;;;;18.58;9.40;;;3.20;88.40;;;;;;9180267;19;20486;-72
2023/12/08 03:35:49;;;;;;;19.30;9.90;;;3.20;88.40;;;;;;9179246;19;20018;-72
2023/12/08 03:38:54;;;;;;;19.88;10.40;;;3.20;88.40;;;;;;9179216;19;20062;-72
2023/12/08 03:42:05;;;;;;;21.98;9.85;;;3.20;88.40;;;;;;9179617;19;20048;-71
2023/12/08 03:45:10;;;;;;;20.05;10.70;;;3.20;88.40;;;;;;9179431;19;20015;-71
2023/12/08 03:48:18;;;;;;;19.60;10.70;;;3.20;88.40;;;;;;9176400;19;21182;-73
2023/12/08 03:51:23;;;;;;;21.13;10.05;;;3.20;88.40;;;;;;9176758;19;20046;-73
2023/12/08 03:54:31;;;;;;;19.40;9.88;;;3.20;88.40;;;;;;9179027;19;20018;-72
2023/12/08 03:57:39;;;;;;;17.08;9.18;;;3.20;88.30;;;;;;9176553;19;20026;-72
2023/12/08 04:00:46;;;;;;;20.73;9.75;;;3.20;88.30;;;;;;9179390;19;20018;-71
2023/12/08 04:03:52;;;;;;;18.58;9.55;;;3.20;88.30;;;;;;9177909;19;20057;-72
2023/12/08 04:06:59;;;;;;;19.65;10.25;;;3.10;88.30;;;;;;9176866;19;20018;-71
2023/12/08 04:10:05;;;;;;;19.45;9.68;;;3.10;88.30;;;;;;9177661;19;20018;-72
2023/12/08 04:13:16;;;;;;;18.27;10.18;;;3.20;88.30;;;;;;9177836;19;20017;-72
2023/12/08 04:16:21;;;;;;;21.23;9.80;;;3.10;88.20;;;;;;9177677;19;20041;-73
2023/12/08 04:19:29;;;;;;;18.98;9.70;;;3.10;88.20;;;;;;9177237;19;20018;-70
2023/12/08 04:22:34;;;;;;;17.42;8.82;;;3.10;88.20;;;;;;9177732;19;20047;-71
2023/12/08 04:25:42;;;;;;;19.02;10.30;;;3.10;88.20;;;;;;9177034;19;20014;-70
2023/12/08 04:28:50;;;;;;;19.33;9.65;;;3.10;88.20;;;;;;9177317;19;20116;-70
2023/12/08 04:31:57;;;;;;;21.30;9.07;;;3.10;88.20;;;;;;9178644;19;20015;-70
2023/12/08 04:35:03;;;;;;;17.67;9.38;;;3.10;88.30;;;;;;9176684;19;20052;-71
2023/12/08 04:38:10;;;;;;;19.20;9.88;;;3.10;88.30;;;;;;9174681;19;20014;-71
2023/12/08 04:41:16;;;;;;;19.67;10.23;;;3.10;88.30;;;;;;9176747;19;20059;-70
2023/12/08 04:44:26;;;;;;;20.05;9.40;;;3.10;88.30;;;;;;9173685;19;20106;-70
2023/12/08 04:47:31;;;;;;;18.48;9.30;;;3.00;88.20;;;;;;9175956;19;20038;-71
2023/12/08 04:50:39;;;;;;;16.30;9.10;;;3.00;88.20;;;;;;9176245;19;20018;-70
2023/12/08 04:53:44;;;;;;;22.67;9.95;;;3.00;88.20;;;;;;9176162;19;20015;-70
2023/12/08 04:56:52;;;;;;;20.15;10.07;;;3.00;88.20;;;;;;9171919;19;20022;-70
2023/12/08 05:00:00;;;;;;;21.60;9.63;;;3.00;88.20;;;;;;9175686;19;20022;-70
2023/12/08 05:03:09;;;;;;;16.73;9.63;;;3.00;88.20;;;;;;9175470;19;20025;-70
2023/12/08 05:06:16;;;;;;;20.05;10.57;;;3.00;88.20;;;;;;9176405;19;20011;-70
2023/12/08 05:09:24;;;;;;;21.45;9.80;;;3.00;88.20;;;;;;9177129;19;20022;-70
2023/12/08 05:12:30;;;;;;;18.77;9.82;;;3.00;88.20;;;;;;9176318;19;20041;-70
2023/12/08 05:15:41;;;;;;;22.23;12.02;;;3.00;88.20;;;;;;9175758;19;20014;-70
2023/12/08 05:18:47;;;;;;;23.67;9.80;;;2.90;88.20;;;;;;9173374;19;20018;-70
2023/12/08 05:21:54;;;;;;;22.00;10.48;;;2.90;88.20;;;;;;9172057;19;20025;-70
2023/12/08 05:25:00;;;;;;;24.38;10.68;;;2.90;88.20;;;;;;9174624;19;20014;-71
2023/12/08 05:28:08;;;;;;;21.23;10.50;;;2.90;88.20;;;;;;9174298;19;20089;-70
2023/12/08 05:31:16;;;;;;;19.55;9.95;;;2.90;88.20;;;;;;9175105;19;20043;-70
2023/12/08 05:34:23;;;;;;;22.20;10.43;;;2.90;88.20;;;;;;9174605;19;20014;-69
2023/12/08 05:37:29;;;;;;;20.98;11.23;;;2.90;88.20;;;;;;9174061;19;20010;-69
2023/12/08 05:40:36;;;;;;;17.98;10.18;;;2.90;88.30;;;;;;9172059;19;20007;-68
2023/12/08 05:43:42;;;;;;;21.30;10.45;;;2.90;88.30;;;;;;9174244;19;20018;-69
2023/12/08 05:46:52;;;;;;;25.27;12.00;;;2.90;88.30;;;;;;9173223;19;20015;-69
2023/12/08 05:49:57;;;;;;;23.25;11.55;;;2.90;88.30;;;;;;9174631;19;20015;-68
2023/12/08 05:53:05;;;;;;;20.25;10.80;;;2.90;88.30;;;;;;9174656;19;20018;-69
2023/12/08 05:56:12;;;;;;;22.30;10.80;;;2.90;88.40;;;;;;9174678;19;20640;-69
2023/12/08 05:59:20;;;;;;;20.30;9.80;;;2.90;88.40;;;;;;9171587;19;20020;-69
2023/12/08 06:02:28;;;;;;;26.00;11.07;;;2.90;88.30;;;;;;9173620;19;20567;-69
2023/12/08 06:05:35;;;;;;;18.48;9.80;;;2.90;88.30;;;;;;9171128;19;20010;-69
2023/12/08 06:08:41;;;;;;;24.88;12.55;;;2.90;88.30;;;;;;9171890;19;20014;-69
2023/12/08 06:11:48;;;;;;;23.08;10.35;;;2.90;88.30;;;;;;9173907;19;20010;-69
2023/12/08 06:14:54;;;;;;;22.15;11.38;;;2.90;88.40;;;;;;9172889;19;20018;-69
2023/12/08 06:18:04;;;;;;;20.83;11.48;;;2.90;88.40;;;;;;9173207;19;20022;-69
2023/12/08 06:21:10;;;;;;;22.02;10.88;;;2.90;88.30;;;;;;9170317;19;20110;-70
2023/12/08 06:24:18;;;;;;;23.73;12.02;;;2.90;88.30;;;;;;9172882;19;20014;-69
2023/12/08 06:27:24;;;;;;;23.80;11.77;;;2.90;88.30;;;;;;9171987;19;20022;-69
2023/12/08 06:30:32;;;;;;;23.50;10.40;;;2.90;88.30;;;;;;9174854;19;20025;-70
2023/12/08 06:33:40;;;;;;;25.42;11.40;;;2.90;88.40;;;;;;9177753;19;20022;-70
2023/12/08 06:36:48;;;;;;;25.85;12.40;;;2.90;88.40;;;;;;9181290;19;20019;-71
2023/12/08 06:39:54;;;;;;;23.85;11.13;;;2.90;88.40;;;;;;9184587;19;20015;-71
2023/12/08 06:43:03;;;;;;;24.38;10.55;;;2.90;88.30;;;;;;9182056;19;20018;-69
2023/12/08 06:46:08;;;;;;;23.30;12.00;;;2.90;88.30;;;;;;9181640;19;20021;-71
2023/12/08 06:49:19;;;;;;;21.20;10.75;;;2.80;88.30;;;;;;9180576;19;20015;-69
2023/12/08 06:52:24;;;;;;;24.10;11.35;;;2.80;88.30;;;;;;9180054;19;20014;-70
2023/12/08 06:55:32;;;;;;;21.63;11.02;;;2.90;88.30;;;;;;9184303;19;20018;-69
2023/12/08 06:58:37;;;;;;;23.88;11.85;;;2.80;88.30;;;;;;9179301;19;20118;-69
2023/12/08 07:01:45;;;;;;;24.55;12.23;;;2.80;88.30;;;;;;9179702;19;20015;-70
2023/12/08 07:04:53;;;;;;;24.30;11.65;;;2.80;88.40;;;;;;9180462;19;20542;-68
2023/12/08 07:08:00;;;;;;;21.42;11.07;;;2.80;88.40;;;;;;9182256;19;20447;-69
2023/12/08 07:11:08;;;;;;;24.58;11.90;;;2.80;88.40;;;;;;9183969;19;20007;-69
2023/12/08 07:14:15;;;;;;;19.35;10.23;;;2.70;88.40;;;;;;9183290;19;20017;-69
2023/12/08 07:17:22;;;;;;;25.42;12.65;;;2.70;88.50;;;;;;9182984;19;20018;-69
2023/12/08 07:20:33;;;;;;;27.95;11.68;;;2.70;88.50;;;;;;9182495;19;20014;-70
2023/12/08 07:23:38;;;;;;;25.90;12.75;;;2.70;88.60;;;;;;9182894;19;20089;-71
2023/12/08 07:26:46;;;;;;;25.95;12.35;;;2.70;88.60;;;;;;9180287;19;20014;-68
2023/12/08 07:29:51;;;;;;;24.58;12.10;;;2.70;88.60;;;;;;9179968;19;20006;-69
2023/12/08 07:32:59;;;;;;;24.30;11.77;;;2.80;88.70;;;;;;9178527;19;20010;-68
2023/12/08 07:36:08;;;;;;;23.00;12.13;;;2.80;88.70;;;;;;9181875;19;20006;-68
2023/12/08 07:39:15;;;;;;;25.00;11.25;;;2.80;88.70;;;;;;9181933;19;20022;-68
2023/12/08 07:42:21;;;;;;;22.73;11.93;;;2.80;88.70;;;;;;9179983;19;20369;-68
2023/12/08 07:45:28;;;;;;;25.95;12.05;;;2.80;88.70;;;;;;9179563;19;20015;-70
2023/12/08 07:48:34;;;;;;;25.52;13.38;;;2.80;88.60;;;;;;9179639;19;20022;-69
2023/12/08 07:51:44;;;;;;;24.77;11.82;;;2.80;88.70;;;;;;9178556;19;20503;-68
2023/12/08 07:54:50;;;;;;;23.40;12.40;;;2.80;88.70;;;;;;9181910;19;20749;-70
2023/12/08 07:57:58;;;;;;;22.73;11.48;;;2.80;88.70;;;;;;9176985;19;20007;-68
2023/12/08 08:01:03;;;;;;;23.75;12.45;;;2.90;88.80;;;;;;9178706;19;20018;-68
2023/12/08 08:04:12;;;;;;;22.55;12.02;;;2.90;88.80;;;;;;9180296;19;20025;-69
2023/12/08 08:07:20;;;;;;;24.10;10.98;;;2.90;88.80;;;;;;9179905;19;20074;-71
2023/12/08 08:10:28;;;;;;;24.80;12.20;;;2.90;88.90;;;;;;9177712;19;20018;-68
2023/12/08 08:13:33;;;;;;;28.75;12.90;;;2.90;88.80;;;;;;9179607;19;20052;-68
2023/12/08 08:16:40;;;;;;;24.80;12.23;;;2.90;88.80;;;;;;9180982;19;20018;-70
2023/12/08 08:19:46;;;;;;;25.40;12.60;;;2.90;88.90;;;;;;9177538;19;20011;-71
2023/12/08 08:22:56;;;;;;;24.90;12.82;;;2.90;88.80;;;;;;9179094;19;20017;-69
2023/12/08 08:26:02;;;;;;;28.58;13.25;;;2.90;88.90;;;;;;9179536;19;20030;-69
2023/12/08 08:29:10;;;;;;;25.85;12.13;;;2.90;88.90;;;;;;9175280;19;20015;-69
2023/12/08 08:32:17;;;;;;;25.50;12.38;;;3.00;89.00;;;;;;9178626;19;20026;-71
2023/12/08 08:35:24;;;;;;;22.55;11.93;;;3.00;89.00;;;;;;9179944;19;20021;-70
2023/12/08 08:38:32;;;;;;;26.95;12.88;;;3.00;89.00;;;;;;9176551;19;20447;-68
2023/12/08 08:41:40;;;;;;;24.48;12.70;;;3.00;89.00;;;;;;9178674;19;20743;-68
2023/12/08 08:44:46;;;;;;;26.52;12.85;;;3.00;89.00;;;;;;9177185;19;20073;-69
2023/12/08 08:47:53;;;;;;;27.00;13.18;;;3.10;89.00;;;;;;9177831;19;20499;-68
2023/12/08 08:50:59;;;;;;;25.73;13.80;;;3.10;89.10;;;;;;9175684;19;20085;-69
2023/12/08 08:54:09;;;;;;;28.90;13.20;;;3.10;89.00;;;;;;9179601;19;20011;-69
2023/12/08 08:57:15;;;;;;;24.75;11.48;;;3.10;89.10;;;;;;9169488;19;20506;-68
2023/12/08 09:00:25;;;;;;;25.40;13.02;;;3.10;89.10;;;;;;9177961;19;20014;-68
2023/12/08 09:03:31;;;;;;;30.65;13.57;;;3.10;89.10;;;;;;9176485;19;20025;-69
2023/12/08 09:06:39;;;;;;;27.38;13.63;;;3.10;89.10;;;;;;9178032;19;20364;-70
2023/12/08 09:09:47;;;;;;;26.23;13.13;;;3.10;89.10;;;;;;9177093;19;20413;-69
2023/12/08 09:12:55;;;;;;;27.55;13.05;;;3.20;89.10;;;;;;9177977;19;20029;-70
2023/12/08 09:16:00;;;;;;;28.40;14.18;;;3.20;89.20;;;;;;9178410;19;20486;-69
2023/12/08 09:19:08;;;;;;;27.45;13.00;;;3.20;89.20;;;;;;9177741;19;20021;-68
2023/12/08 09:22:14;;;;;;;22.40;12.25;;;3.20;89.20;;;;;;9177436;19;20364;-69
2023/12/08 09:25:24;;;;;;;28.85;13.27;;;3.30;89.30;;;;;;9174218;19;20014;-72
2023/12/08 09:28:30;;;;;;;31.92;14.02;;;3.30;89.30;;;;;;9177195;19;20018;-70
2023/12/08 09:31:37;;;;;;;28.75;14.20;;;3.30;89.30;;;;;;9175994;19;20369;-70
2023/12/08 09:34:42;;;;;;;29.52;13.93;;;3.30;90.00;;;;;;9175464;19;20024;-71
2023/12/08 09:37:50;;;;;;;36.22;14.48;;;3.40;89.40;;;;;;9175691;19;20022;-69
2023/12/08 09:40:58;;;;;;;31.98;14.52;;;3.40;89.40;;;;;;9176487;19;20035;-69
2023/12/08 09:44:12;;;;;;;31.70;13.90;;;3.40;89.40;;;;;;9177324;19;20018;-68
2023/12/08 09:47:21;;;;;;;35.00;13.68;;;3.40;89.40;;;;;;9175436;19;20015;-69
2023/12/08 09:50:30;;;;;;;25.52;12.93;;;3.50;89.50;;;;;;9174835;19;20018;-70
2023/12/08 09:53:37;;;;;;;36.22;14.25;;;3.50;89.40;;;;;;9176454;19;20015;-69
2023/12/08 09:56:48;;;;;;;35.10;14.88;;;3.50;89.40;;;;;;9172751;19;20034;-68
2023/12/08 09:59:54;;;;;;;29.67;14.82;;;3.50;89.40;;;;;;9176087;19;20028;-69
2023/12/08 10:03:02;;;;;;;43.45;15.80;;;3.60;89.40;;;;;;9175830;19;20018;-69
2023/12/08 10:06:09;;;;;;;46.78;18.55;;;3.60;90.00;;;;;;9175838;19;20027;-69
2023/12/08 10:09:19;;;;;;;33.92;15.57;;;3.70;89.50;;;;;;9175138;19;20521;-72
2023/12/08 10:12:28;;;;;;;43.40;14.75;;;3.70;89.50;;;;;;9175802;19;20014;-68
2023/12/08 10:15:35;;;;;;;41.17;15.57;;;3.70;89.50;;;;;;9175379;19;20018;-69
2023/12/08 10:18:43;;;;;;;38.88;15.50;;;3.70;89.50;;;;;;9174254;19;20048;-72
2023/12/08 10:22:01;;;;;;;47.92;16.95;;;3.70;89.50;;;;;;9174846;19;20029;-69
2023/12/08 10:25:08;;;;;;;47.95;17.90;;;3.80;89.60;;;;;;9174720;19;20015;-70
2023/12/08 10:28:18;;;;;;;49.75;17.52;;;3.80;89.60;;;;;;9175707;19;20015;-69
2023/12/08 10:31:24;;;;;;;49.63;19.08;;;3.90;89.70;;;;;;9173175;19;20049;-69
2023/12/08 10:34:31;;;;;;;57.47;18.63;;;3.90;89.60;;;;;;9172872;19;20022;-70
2023/12/08 10:37:37;;;;;;;55.17;19.77;;;3.90;89.70;;;;;;9174335;19;20021;-70
2023/12/08 10:40:49;;;;;;;57.72;19.60;;;3.90;89.60;;;;;;9174761;19;20023;-69
2023/12/08 10:43:57;;;;;;;50.75;19.33;;;4.00;89.70;;;;;;9174575;19;20373;-70
2023/12/08 10:47:05;;;;;;;47.03;19.27;;;4.00;89.70;;;;;;9174567;19;20353;-70
2023/12/08 10:50:11;;;;;;;51.53;18.83;;;4.00;89.70;;;;;;9173467;19;20015;-70
2023/12/08 10:53:22;;;;;;;58.95;21.45;;;4.10;89.70;;;;;;9174475;19;20041;-70
2023/12/08 10:56:27;;;;;;;47.85;19.33;;;4.10;89.70;;;;;;9174944;19;20010;-70
2023/12/08 10:59:43;;;;;;;56.10;19.55;;;4.10;89.70;;;;;;9174182;19;20006;-70
2023/12/08 11:02:50;;;;;;;48.92;18.05;;;4.20;89.80;;;;;;9174384;19;20509;-69
2023/12/08 11:06:06;;;;;;;57.38;20.35;;;4.20;89.80;;;;;;9173056;19;20029;-69
2023/12/08 11:09:15;;;;;;;50.08;21.33;;;4.20;89.80;;;;;;9171515;19;20627;-71
2023/12/08 11:12:27;;;;;;;54.47;19.58;;;4.30;89.80;;;;;;9171224;19;20022;-69
2023/12/08 11:15:39;;;;;;;45.90;21.30;;;4.30;89.90;;;;;;9174380;19;20014;-69
2023/12/08 11:18:47;;;;;;;;;;;4.30;89.80;;;;;;9172161;19;20074;-70
2023/12/08 11:21:53;;;;;;;51.97;21.63;;;4.40;89.80;;;;;;9180773;19;19915;-70
2023/12/08 11:25:04;;;;;;;57.35;21.25;;;4.40;89.90;;;;;;9180634;19;20019;-69
2023/12/08 11:28:17;;;;;;;59.63;20.58;;;4.40;89.90;;;;;;9181819;19;20018;-69
2023/12/08 11:31:36;;;;;;;52.63;21.00;;;4.50;90.00;;;;;;9179370;19;20026;-69
2023/12/08 11:34:52;;;;;;;48.40;20.27;;;4.50;90.00;;;;;;9181735;19;20476;-70
2023/12/08 11:38:00;;;;;;;59.38;21.75;;;4.50;90.00;;;;;;9181284;19;20022;-71
2023/12/08 11:41:12;;;;;;;53.97;21.15;;;4.60;90.00;;;;;;9180739;19;20002;-69
2023/12/08 11:44:20;;;;;;;55.95;20.80;;;4.60;90.00;;;;;;9181011;19;20023;-70
2023/12/08 11:47:29;;;;;;;53.38;21.77;;;4.60;90.00;;;;;;9182008;19;20044;-71
2023/12/08 11:50:37;;;;;;;51.58;21.73;;;4.70;90.00;;;;;;9180232;19;20019;-71
2023/12/08 11:53:57;;;;;;;57.22;21.13;;;4.70;90.00;;;;;;9181871;19;20018;-70
2023/12/08 11:57:06;;;;;;;57.78;21.38;;;4.70;90.00;;;;;;9177057;19;20018;-73
2023/12/08 12:00:14;;;;;;;52.03;20.52;;;4.80;90.00;;;;;;9181320;19;20018;-75
2023/12/08 12:03:26;;;;;;;46.70;21.38;;;4.80;90.00;;;;;;9180283;19;20498;-73
2023/12/08 12:06:33;;;;;;;49.83;21.33;;;4.80;90.00;;;;;;9180729;19;20427;-72
2023/12/08 12:09:43;;;;;;;55.22;20.38;;;4.90;90.00;;;;;;9180035;19;20026;-72
2023/12/08 12:12:56;;;;;;;47.33;20.00;;;4.90;90.00;;;;;;9177532;19;20034;-71
2023/12/08 12:16:04;;;;;;;49.75;21.27;;;4.90;90.10;;;;;;9180196;19;20014;-73
2023/12/08 12:19:12;;;;;;;53.30;20.55;;;4.90;90.00;;;;;;9180545;19;20038;-68
2023/12/08 12:22:20;;;;;;;49.67;20.88;;;5.00;90.10;;;;;;9179702;19;20025;-68
2023/12/08 12:25:26;;;;;;;45.38;20.70;;;5.00;90.10;;;;;;9179238;19;20010;-74
2023/12/08 12:28:33;;;;;;;46.97;20.42;;;5.00;90.10;;;;;;9180832;19;20010;-72
2023/12/08 12:31:39;;;;;;;46.25;19.40;;;5.10;90.10;;;;;;9178477;19;20630;-72
2023/12/08 12:34:49;;;;;;;44.78;20.23;;;5.10;90.10;;;;;;9177665;19;20340;-73
2023/12/08 12:37:56;;;;;;;48.70;19.77;;;5.10;90.10;;;;;;9177854;19;20062;-75
2023/12/08 12:41:21;;;;;;;51.10;18.42;;;5.10;90.10;;;;;;9175352;19;20016;-73
2023/12/08 12:44:39;;;;;;;42.33;18.55;;;5.20;90.10;;;;;;9179188;19;20019;-73
2023/12/08 12:47:47;;;;;;;52.42;19.85;;;5.20;90.10;;;;;;9179699;19;20030;-75
2023/12/08 12:50:55;;;;;;;60.40;20.17;;;5.30;90.10;;;;;;9176761;19;20431;-75
2023/12/08 12:54:03;;;;;;;50.10;17.70;;;5.30;90.20;;;;;;9177454;19;20011;-73
2023/12/08 12:57:09;;;;;;;41.97;18.17;;;5.30;90.10;;;;;;9172763;19;20018;-73
2023/12/08 13:00:30;;;;;;;38.17;17.98;;;5.40;90.10;;;;;;9175064;19;20025;-74
2023/12/08 13:03:36;;;;;;;46.47;17.73;;;5.40;90.10;;;;;;9175757;19;20017;-76
2023/12/08 13:06:46;;;;;;;47.80;17.42;;;5.40;90.20;;;;;;9175560;19;20015;-75
2023/12/08 13:09:52;;;;;;;38.42;16.35;;;5.40;90.20;;;;;;9171680;19;20014;-75
2023/12/08 13:13:00;;;;;;;36.13;16.38;;;5.50;90.20;;;;;;9173503;19;20010;-74
2023/12/08 13:16:06;;;;;;;46.22;17.20;;;5.50;90.20;;;;;;9175818;19;20021;-74
2023/12/08 13:19:14;;;;;;;35.72;16.92;;;5.50;90.20;;;;;;9176133;19;20022;-76
2023/12/08 13:22:23;;;;;;;47.13;17.40;;;5.50;90.20;;;;;;9175396;19;20022;-73
2023/12/08 13:25:31;;;;;;;41.05;17.05;;;5.60;90.20;;;;;;9176627;19;20018;-74
2023/12/08 13:28:36;;;;;;;42.35;14.85;;;5.60;90.20;;;;;;9173928;19;20021;-74
2023/12/08 13:31:44;;;;;;;39.70;16.20;;;5.60;90.20;;;;;;9174537;19;20019;-74
2023/12/08 13:34:49;;;;;;;44.22;16.92;;;5.60;90.20;;;;;;9175170;19;20007;-74
2023/12/08 13:38:00;;;;;;;41.35;15.95;;;5.70;90.20;;;;;;9172312;19;20033;-74
2023/12/08 13:41:06;;;;;;;42.20;16.25;;;5.70;90.30;;;;;;9174132;19;20022;-74
2023/12/08 13:44:13;;;;;;;38.40;14.93;;;5.70;90.20;;;;;;9172869;19;20022;-74
2023/12/08 13:47:19;;;;;;;41.17;15.93;;;5.70;90.20;;;;;;9174253;19;20014;-74
2023/12/08 13:50:27;;;;;;;42.00;15.68;;;5.80;90.30;;;;;;9172939;19;20021;-74
2023/12/08 13:53:35;;;;;;;38.15;15.57;;;5.80;90.30;;;;;;9169137;19;20014;-74
2023/12/08 13:56:43;;;;;;;45.33;16.40;;;5.80;90.30;;;;;;9170024;19;20011;-77
2023/12/08 13:59:49;;;;;;;41.63;17.17;;;5.80;90.20;;;;;;9173455;19;20010;-75
2023/12/08 14:02:56;;;;;;;41.97;16.40;;;5.90;90.30;;;;;;9170708;19;20014;-75
2023/12/08 14:06:02;;;;;;;40.00;15.88;;;5.90;90.30;;;;;;9171864;19;20753;-75
2023/12/08 14:09:12;;;;;;;39.92;15.43;;;5.90;90.30;;;;;;9173132;19;20018;-74
2023/12/08 14:12:18;;;;;;;37.13;16.77;;;5.90;90.30;;;;;;9170536;19;20019;-73
2023/12/08 14:15:26;;;;;;;37.50;16.50;;;6.00;90.30;;;;;;9173077;19;20472;-73
2023/12/08 14:18:31;;;;;;;45.90;17.42;;;5.90;90.30;;;;;;9170804;19;20630;-75
2023/12/08 14:21:39;;;;;;;44.22;16.90;;;5.90;90.30;;;;;;9171333;19;20018;-75
2023/12/08 14:24:47;;;;;;;44.92;18.73;;;6.00;90.30;;;;;;9167987;19;20035;-73
2023/12/08 14:27:55;;;;;;;48.17;18.80;;;6.00;90.30;;;;;;9169593;19;20480;-73
2023/12/08 14:31:01;;;;;;;48.22;16.73;;;6.10;90.30;;;;;;9167640;19;20018;-73
2023/12/08 14:34:09;;;;;;;48.05;17.83;;;6.10;90.30;;;;;;9163671;19;20022;-73
2023/12/08 14:37:15;;;;;;;45.90;17.95;;;6.10;90.30;;;;;;9170870;19;20369;-74
2023/12/08 14:40:25;;;;;;;46.03;17.70;;;6.10;90.30;;;;;;9172168;19;20018;-74
2023/12/08 14:43:31;;;;;;;45.13;16.80;;;6.10;90.30;;;;;;9168370;19;20017;-74
2023/12/08 14:46:38;;;;;;;42.28;16.70;;;6.10;90.30;;;;;;9171282;19;20019;-73
2023/12/08 14:49:44;;;;;;;43.13;18.63;;;6.20;90.30;;;;;;9171019;19;20019;-75
2023/12/08 14:52:52;;;;;;;47.47;17.60;;;6.20;90.30;;;;;;9166406;19;20789;-74
2023/12/08 14:56:00;;;;;;;45.15;17.83;;;6.20;90.30;;;;;;9181245;19;20026;-74
2023/12/08 14:59:08;;;;;;;43.70;16.75;;;6.20;90.30;;;;;;9173626;19;20018;-72
2023/12/08 15:02:14;;;;;;;44.65;18.23;;;6.20;90.30;;;;;;9176266;19;20022;-72
2023/12/08 15:05:21;;;;;;;39.67;16.83;;;6.30;90.40;;;;;;9176896;19;20018;-73
2023/12/08 15:08:28;;;;;;;46.70;17.95;;;6.30;90.40;;;;;;9178223;19;20022;-72
2023/12/08 15:11:38;;;;;;;45.30;15.52;;;6.30;90.40;;;;;;9179684;19;20030;-72
2023/12/08 15:14:44;;;;;;;43.17;16.02;;;6.30;90.40;;;;;;9175053;19;20007;-72
2023/12/08 15:17:51;;;;;;;46.47;16.40;;;6.40;90.40;;;;;;9180276;19;20022;-73
2023/12/08 15:20:58;;;;;;;42.83;14.13;;;6.40;90.40;;;;;;9180858;19;20053;-73
2023/12/08 15:24:08;;;;;;;37.08;15.75;;;6.40;90.40;;;;;;9180293;19;20114;-73
2023/12/08 15:27:17;;;;;;;33.55;14.38;;;6.40;90.40;;;;;;9182845;19;20022;-73
2023/12/08 15:30:25;;;;;;;38.72;14.88;;;6.50;90.50;;;;;;9182656;19;20018;-73
2023/12/08 15:33:31;;;;;;;42.53;16.00;;;6.50;90.50;;;;;;9179741;19;20330;-73
2023/12/08 15:36:39;;;;;;;39.83;15.15;;;6.50;90.50;;;;;;9181285;19;20021;-73
2023/12/08 15:39:45;;;;;;;47.83;16.48;;;6.50;90.50;;;;;;9181795;19;20014;-74
2023/12/08 15:42:55;;;;;;;51.15;16.40;;;6.50;90.50;;;;;;9180808;19;20025;-74
2023/12/08 15:46:01;;;;;;;41.10;15.77;;;6.60;90.50;;;;;;9182204;19;20048;-76
2023/12/08 15:49:09;;;;;;;40.60;16.15;;;6.60;90.50;;;;;;9180619;19;20010;-73
2023/12/08 15:52:15;;;;;;;45.80;15.90;;;6.70;90.50;;;;;;9179889;19;20011;-74
2023/12/08 15:55:23;;;;;;;47.30;16.00;;;6.70;90.50;;;;;;9179862;19;20411;-74
2023/12/08 15:58:32;;;;;;;37.25;15.73;;;6.70;90.50;;;;;;9176002;19;20026;-75
2023/12/08 16:01:40;;;;;;;42.83;14.88;;;6.80;90.50;;;;;;9182300;19;20018;-75
2023/12/08 16:04:45;;;;;;;43.80;16.35;;;6.70;90.50;;;;;;9181646;19;20014;-73
2023/12/08 16:07:53;;;;;;;49.97;17.92;;;6.80;90.50;;;;;;9178686;19;20021;-72
2023/12/08 16:10:59;;;;;;;39.40;15.35;;;6.80;90.80;;;;;;9177132;19;20051;-72